Time;durP1;ratioP1;P1;durP2;ratioP2;P2;SDS_P1;SDS_P2;PMS_P1;PMS_P2;Temp;Humidity;BMP_temperature;BMP_pressure;BME280_temperature;BME280_humidity;BME280_pressure;Samples;Min_cycle;Max_cycle;Signal;HPM_P1;HPM_P2
2023/01/21 00:02:12;;;;;;;44.13;23.77;;;-0.60;99.90;;;;;;5048105;28;20040;-53
2023/01/21 00:04:38;;;;;;;46.20;23.60;;;-0.60;99.90;;;;;;5045469;28;20565;-52
2023/01/21 00:07:05;;;;;;;52.00;25.27;;;-0.60;99.90;;;;;;5046526;28;20048;-52
2023/01/21 00:09:31;;;;;;;45.15;24.77;;;-0.70;99.90;;;;;;5048264;28;20491;-51
2023/01/21 00:11:57;;;;;;;46.67;22.93;;;-0.70;99.90;;;;;;5035191;28;20072;-48
2023/01/21 00:14:23;;;;;;;;;;;-0.70;99.90;;;;;;5041060;28;20411;-51
2023/01/21 00:16:48;;;;;;;42.30;23.45;;;-0.70;99.90;;;;;;5045117;28;19916;-51
2023/01/21 00:19:14;;;;;;;44.40;25.10;;;-0.70;99.90;;;;;;5045696;28;20032;-50
2023/01/21 00:21:40;;;;;;;45.57;24.90;;;-0.70;99.90;;;;;;5047841;28;20044;-51
2023/01/21 00:24:06;;;;;;;44.70;24.90;;;-0.70;99.90;;;;;;5046218;28;20405;-51
2023/01/21 00:26:31;;;;;;;46.42;24.50;;;-0.70;99.90;;;;;;5048021;28;20394;-52
2023/01/21 00:28:57;;;;;;;46.50;25.67;;;-0.70;99.90;;;;;;5047795;28;20064;-50
2023/01/21 00:31:22;;;;;;;50.37;25.40;;;-0.70;99.90;;;;;;5048107;28;20076;-51
2023/01/21 00:33:49;;;;;;;39.70;23.40;;;-0.80;99.90;;;;;;5045680;28;20126;-51
2023/01/21 00:36:17;;;;;;;46.38;25.02;;;-0.70;99.90;;;;;;5046040;28;20450;-50
2023/01/21 00:38:44;;;;;;;48.40;25.65;;;-0.80;99.90;;;;;;5047382;28;20509;-53
2023/01/21 00:41:13;;;;;;;55.28;25.63;;;-0.80;99.90;;;;;;5046002;28;20482;-52
2023/01/21 00:43:40;;;;;;;43.97;23.33;;;-0.80;99.90;;;;;;5046495;28;20041;-52
2023/01/21 00:46:07;;;;;;;46.17;24.65;;;-0.80;99.90;;;;;;5046800;28;20078;-50
2023/01/21 00:48:32;;;;;;;43.33;24.77;;;-0.80;99.90;;;;;;5044870;28;20043;-53
2023/01/21 00:51:01;;;;;;;44.47;23.55;;;-0.80;99.90;;;;;;5048407;28;20473;-51
2023/01/21 00:53:29;;;;;;;44.72;24.67;;;-0.80;99.90;;;;;;5046994;28;20037;-49
2023/01/21 00:56:03;;;;;;;44.33;24.23;;;-0.80;99.90;;;;;;5044419;28;20041;-51
2023/01/21 00:58:29;;;;;;;43.75;22.80;;;-0.90;99.90;;;;;;5047792;28;20033;-50
2023/01/21 01:01:04;;;;;;;48.30;24.85;;;-0.90;99.90;;;;;;5048216;28;20033;-51
2023/01/21 01:03:31;;;;;;;45.53;25.25;;;-0.90;99.90;;;;;;5047233;28;20124;-51
2023/01/21 01:06:26;;;;;;;46.00;25.20;;;-0.90;99.90;;;;;;5048636;28;20111;-51
2023/01/21 01:08:53;;;;;;;51.63;26.02;;;-1.00;99.90;;;;;;5038619;28;20521;-52
2023/01/21 01:11:20;;;;;;;53.45;27.55;;;-0.90;99.90;;;;;;5047095;28;20044;-51
2023/01/21 01:13:46;;;;;;;50.13;25.92;;;-1.00;99.90;;;;;;5047317;28;20494;-52
2023/01/21 01:16:13;;;;;;;52.60;28.20;;;-1.00;99.90;;;;;;5048222;28;20465;-52
2023/01/21 01:18:39;;;;;;;51.30;26.33;;;-0.90;99.90;;;;;;5049839;28;20310;-50
2023/01/21 01:21:05;;;;;;;55.07;27.40;;;-0.90;99.90;;;;;;5051010;28;20112;-50
2023/01/21 01:23:31;;;;;;;59.08;27.48;;;-0.90;99.90;;;;;;5050702;28;20039;-54
2023/01/21 01:26:02;;;;;;;55.85;28.10;;;-0.90;99.90;;;;;;5051471;28;20076;-51
2023/01/21 01:28:28;;;;;;;56.50;27.58;;;-0.80;99.90;;;;;;5051217;28;20033;-51
2023/01/21 01:30:54;;;;;;;57.47;29.73;;;-0.80;99.90;;;;;;5051667;28;20048;-51
2023/01/21 01:33:20;;;;;;;51.25;26.55;;;-0.70;99.90;;;;;;5051369;28;20394;-51
2023/01/21 01:35:47;;;;;;;62.10;29.63;;;-0.70;99.90;;;;;;5049703;28;20071;-52
2023/01/21 01:38:13;;;;;;;;;;;-0.70;99.90;;;;;;5051630;28;20045;-52
2023/01/21 01:40:39;;;;;;;59.45;28.40;;;-0.70;99.90;;;;;;5050963;28;19986;-49
2023/01/21 01:43:45;;;;;;;62.13;30.97;;;-0.60;99.90;;;;;;5050660;28;20498;-51
2023/01/21 01:46:11;;;;;;;66.95;30.95;;;-0.60;99.90;;;;;;5050476;28;20037;-50
2023/01/21 01:48:36;;;;;;;60.83;30.63;;;-0.60;99.90;;;;;;5050653;28;20048;-51
2023/01/21 01:51:06;;;;;;;62.28;29.38;;;-0.50;99.90;;;;;;5050976;28;20037;-50
2023/01/21 01:53:34;;;;;;;68.88;31.10;;;-0.50;99.90;;;;;;5050099;28;20033;-51
2023/01/21 01:56:00;;;;;;;66.70;32.15;;;-0.50;99.90;;;;;;5050430;28;20498;-51
2023/01/21 01:58:29;;;;;;;68.03;33.80;;;-0.50;99.90;;;;;;5048084;28;20452;-52
2023/01/21 02:00:55;;;;;;;67.20;34.25;;;-0.40;99.90;;;;;;5051840;28;20143;-51
2023/01/21 02:06:06;;;;;;;65.72;32.92;;;-0.40;99.90;;;;;;5051359;28;20069;-51
2023/01/21 02:08:33;;;;;;;77.90;38.22;;;-0.40;99.90;;;;;;5050513;28;20040;-50
2023/01/21 02:10:59;;;;;;;77.57;35.65;;;-0.40;99.90;;;;;;5050987;28;20040;-50
2023/01/21 02:13:26;;;;;;;;;;;-0.30;99.90;;;;;;5050576;28;20397;-51
2023/01/21 02:16:17;;;;;;;72.38;34.22;;;-0.30;99.90;;;;;;5051038;28;19936;-50
2023/01/21 02:18:58;;;;;;;78.20;36.60;;;-0.30;99.90;;;;;;5050310;28;20068;-52
2023/01/21 02:21:45;;;;;;;71.97;34.65;;;-0.30;99.90;;;;;;5050558;28;20494;-51
2023/01/21 02:24:27;;;;;;;73.32;36.03;;;-0.30;99.90;;;;;;5049298;28;20037;-51
2023/01/21 02:27:18;;;;;;;76.43;36.72;;;-0.30;99.90;;;;;;5049034;28;20060;-51
2023/01/21 02:30:17;;;;;;;68.63;32.75;;;-0.30;99.90;;;;;;5049834;28;20300;-51
2023/01/21 02:33:01;;;;;;;;;;;-0.30;99.90;;;;;;5049955;28;20160;-50
2023/01/21 02:35:47;;;;;;;69.72;33.40;;;-0.20;99.90;;;;;;5049821;28;19930;-51
2023/01/21 02:38:27;;;;;;;75.05;34.88;;;-0.20;99.90;;;;;;5027937;28;20085;-50
2023/01/21 02:41:02;;;;;;;67.80;33.38;;;-0.20;99.90;;;;;;5050352;28;20037;-50
2023/01/21 02:43:38;;;;;;;72.13;34.72;;;-0.20;99.90;;;;;;5049028;28;20047;-51
2023/01/21 02:46:23;;;;;;;66.80;34.13;;;-0.20;99.90;;;;;;5050272;28;20036;-51
2023/01/21 02:48:58;;;;;;;66.93;34.83;;;-0.20;99.90;;;;;;5046361;28;20078;-52
2023/01/21 02:51:24;;;;;;;75.05;36.03;;;-0.20;99.90;;;;;;5049873;28;20033;-51
2023/01/21 02:53:49;;;;;;;75.95;34.42;;;-0.20;99.90;;;;;;5064249;28;20118;-51
2023/01/21 02:56:19;;;;;;;82.60;38.07;;;-0.20;99.90;;;;;;5049943;28;20072;-52
2023/01/21 02:59:11;;;;;;;71.70;34.67;;;-0.20;99.90;;;;;;5049442;28;20375;-51
2023/01/21 03:02:02;;;;;;;74.72;34.45;;;-0.20;99.90;;;;;;5049670;28;20099;-54
2023/01/21 03:04:56;;;;;;;76.30;35.30;;;-0.20;99.90;;;;;;5047783;28;20124;-51
2023/01/21 03:07:35;;;;;;;77.30;32.10;;;-0.20;99.90;;;;;;5049558;28;20037;-52
2023/01/21 03:10:11;;;;;;;89.45;39.42;;;-0.20;99.90;;;;;;5049359;28;20033;-52
2023/01/21 03:12:52;;;;;;;71.00;36.72;;;-0.20;99.90;;;;;;5048560;28;20768;-52
2023/01/21 03:18:25;;;;;;;74.07;35.40;;;-0.10;99.90;;;;;;5049294;28;20411;-51
2023/01/21 03:20:56;;;;;;;73.80;34.00;;;-0.20;99.90;;;;;;5049291;28;20045;-54
2023/01/21 03:23:48;;;;;;;80.72;35.70;;;-0.10;99.90;;;;;;5048900;28;20487;-51
2023/01/21 03:26:17;;;;;;;80.50;35.13;;;-0.10;99.90;;;;;;5048591;28;20071;-51
2023/01/21 03:28:47;;;;;;;79.78;35.22;;;-0.10;99.90;;;;;;5049709;28;20051;-50
2023/01/21 03:31:20;;;;;;;78.82;34.08;;;-0.10;99.90;;;;;;5050045;28;20116;-52
2023/01/21 03:33:48;;;;;;;79.90;35.45;;;-0.10;99.90;;;;;;5048598;28;20071;-52
2023/01/21 03:36:41;;;;;;;83.47;36.42;;;-0.10;99.90;;;;;;5049359;28;20040;-51
2023/01/21 03:39:19;;;;;;;71.07;34.63;;;-0.10;99.90;;;;;;5049311;28;20033;-51
2023/01/21 03:41:45;;;;;;;77.25;35.55;;;0.00;99.90;;;;;;5048631;28;20032;-50
2023/01/21 03:44:11;;;;;;;77.07;34.10;;;-0.10;99.90;;;;;;5048653;28;20383;-52
2023/01/21 03:46:42;;;;;;;80.13;37.10;;;-0.10;99.90;;;;;;5049293;28;20029;-53
2023/01/21 03:49:33;;;;;;;72.55;32.70;;;-0.10;99.90;;;;;;5048956;28;20036;-52
2023/01/21 03:52:01;;;;;;;67.30;31.42;;;-0.10;99.90;;;;;;5046982;28;20266;-52
2023/01/21 03:54:27;;;;;;;70.10;33.75;;;-0.10;99.90;;;;;;5048569;28;20129;-52
2023/01/21 03:56:52;;;;;;;73.23;35.13;;;-0.10;99.90;;;;;;5048763;28;20064;-52
2023/01/21 03:59:18;;;;;;;79.13;36.63;;;0.00;99.90;;;;;;5048809;28;20040;-53
2023/01/21 04:01:44;;;;;;;76.67;34.73;;;0.00;99.90;;;;;;5048741;28;20490;-52
2023/01/21 04:04:09;;;;;;;68.00;31.50;;;0.00;99.90;;;;;;5047689;28;20032;-53
2023/01/21 04:06:35;;;;;;;77.88;35.13;;;0.00;99.90;;;;;;5048369;28;20643;-51
2023/01/21 04:09:03;;;;;;;74.63;33.28;;;0.00;99.90;;;;;;5048231;28;20083;-51
2023/01/21 04:11:28;;;;;;;67.32;33.53;;;0.00;99.90;;;;;;5046288;28;20536;-51
2023/01/21 04:13:54;;;;;;;73.93;34.53;;;0.00;99.90;;;;;;5047856;28;20036;-50
2023/01/21 04:16:20;;;;;;;71.60;32.93;;;0.00;99.90;;;;;;5048714;28;20486;-50
2023/01/21 04:18:46;;;;;;;69.53;33.40;;;0.00;99.90;;;;;;5047714;28;20037;-52
2023/01/21 04:21:12;;;;;;;72.85;32.75;;;0.10;99.90;;;;;;5048309;28;20102;-51
2023/01/21 04:23:38;;;;;;;65.97;31.60;;;0.10;99.90;;;;;;5047758;28;20537;-55
2023/01/21 04:26:03;;;;;;;74.73;30.37;;;0.10;99.90;;;;;;5048814;28;20707;-54
2023/01/21 04:28:29;;;;;;;72.17;34.07;;;0.10;99.90;;;;;;5048164;28;20039;-51
2023/01/21 04:30:54;;;;;;;68.77;32.17;;;0.10;99.90;;;;;;5047316;28;20491;-54
2023/01/21 04:33:20;;;;;;;64.73;30.80;;;0.10;99.90;;;;;;5047990;28;20037;-50
2023/01/21 04:35:45;;;;;;;70.63;32.77;;;0.10;99.90;;;;;;5047802;28;20040;-52
2023/01/21 04:38:11;;;;;;;70.40;33.00;;;0.10;99.90;;;;;;5048456;28;20036;-51
2023/01/21 04:40:37;;;;;;;63.70;29.63;;;0.20;99.90;;;;;;5048338;28;20089;-53
2023/01/21 04:43:03;;;;;;;68.77;31.20;;;0.20;99.90;;;;;;5047687;28;20032;-50
2023/01/21 04:45:28;;;;;;;65.17;30.87;;;0.20;99.90;;;;;;5048170;28;20040;-51
2023/01/21 04:47:54;;;;;;;72.60;33.13;;;0.20;99.90;;;;;;5046546;28;20049;-52
2023/01/21 04:50:19;;;;;;;84.37;36.87;;;0.20;99.90;;;;;;5047696;28;20048;-51
2023/01/21 04:52:45;;;;;;;79.17;35.33;;;0.20;99.90;;;;;;5047662;28;20148;-50
2023/01/21 04:55:10;;;;;;;87.63;39.30;;;0.10;99.90;;;;;;5047103;28;20037;-53
2023/01/21 04:57:36;;;;;;;87.57;37.87;;;0.10;99.90;;;;;;5047737;28;20041;-50
2023/01/21 05:00:04;;;;;;;82.67;37.60;;;0.10;99.90;;;;;;5048250;28;20037;-49
2023/01/21 05:02:30;;;;;;;89.43;38.83;;;0.10;99.90;;;;;;5047944;28;20539;-50
2023/01/21 05:04:56;;;;;;;76.65;34.58;;;0.10;99.90;;;;;;5046218;28;20410;-51
2023/01/21 05:07:22;;;;;;;80.77;36.27;;;0.10;99.90;;;;;;5044559;28;20037;-55
2023/01/21 05:09:47;;;;;;;88.33;39.43;;;0.10;99.90;;;;;;5047385;28;20037;-50
2023/01/21 05:12:13;;;;;;;84.47;38.83;;;0.10;99.90;;;;;;5048106;28;20283;-51
2023/01/21 05:14:38;;;;;;;80.37;35.53;;;0.10;99.90;;;;;;5045312;28;20063;-54
2023/01/21 05:17:04;;;;;;;81.87;38.43;;;0.10;99.90;;;;;;5047373;28;20080;-53
2023/01/21 05:19:30;;;;;;;75.97;36.83;;;0.10;99.90;;;;;;5047211;28;20040;-53
2023/01/21 05:21:55;;;;;;;79.03;36.43;;;0.10;99.90;;;;;;5047593;28;20547;-51
2023/01/21 05:24:21;;;;;;;79.40;37.70;;;0.10;99.90;;;;;;5047001;28;20402;-51
2023/01/21 05:26:48;;;;;;;80.57;37.20;;;0.10;99.90;;;;;;5047857;28;20120;-51
2023/01/21 05:29:15;;;;;;;82.70;36.00;;;0.10;99.90;;;;;;5047670;28;20041;-52
2023/01/21 05:31:42;;;;;;;81.07;37.10;;;0.10;99.90;;;;;;5047548;28;20124;-51
2023/01/21 05:34:08;;;;;;;75.13;34.00;;;0.20;99.90;;;;;;5043909;28;20108;-52
2023/01/21 05:36:34;;;;;;;;;;;0.10;99.90;;;;;;5048478;28;20108;-51
2023/01/21 05:39:00;;;;;;;81.30;35.83;;;0.10;99.90;;;;;;5045863;28;20023;-51
2023/01/21 05:41:26;;;;;;;77.55;35.85;;;0.10;99.90;;;;;;5048027;28;20037;-52
2023/01/21 05:43:51;;;;;;;78.53;35.90;;;0.10;99.90;;;;;;5046878;28;20032;-55
2023/01/21 05:46:17;;;;;;;77.40;34.67;;;0.10;99.90;;;;;;5047889;28;20063;-50
2023/01/21 05:48:42;;;;;;;85.57;36.27;;;0.20;99.90;;;;;;5046926;28;20045;-51
2023/01/21 05:51:08;;;;;;;81.07;35.10;;;0.20;99.90;;;;;;5046909;28;20411;-49
2023/01/21 05:53:34;;;;;;;71.37;33.47;;;0.20;99.90;;;;;;5046982;28;20124;-51
2023/01/21 05:55:59;;;;;;;76.53;35.63;;;0.20;99.90;;;;;;5047529;28;20345;-51
2023/01/21 05:58:26;;;;;;;76.97;35.30;;;0.20;99.90;;;;;;5046982;28;20037;-53
2023/01/21 06:00:52;;;;;;;83.75;36.33;;;0.20;99.90;;;;;;5047695;28;20075;-51
2023/01/21 06:03:18;;;;;;;79.80;37.90;;;0.20;99.90;;;;;;5046338;28;20079;-51
2023/01/21 06:05:45;;;;;;;80.97;36.88;;;0.20;99.90;;;;;;5049068;28;20037;-53
2023/01/21 06:08:12;;;;;;;75.43;35.58;;;0.30;99.90;;;;;;5050749;28;20066;-50
2023/01/21 06:10:38;;;;;;;78.05;35.92;;;0.30;99.90;;;;;;5051284;28;20532;-52
2023/01/21 06:13:04;;;;;;;90.43;39.45;;;0.30;99.90;;;;;;5050631;28;20039;-54
2023/01/21 06:15:32;;;;;;;81.00;37.95;;;0.30;99.90;;;;;;5050818;28;20040;-52
2023/01/21 06:17:59;;;;;;;78.00;36.72;;;0.30;99.90;;;;;;5050373;28;20045;-52
2023/01/21 06:20:25;;;;;;;84.55;36.40;;;0.30;99.90;;;;;;5050707;28;20441;-52
2023/01/21 06:22:50;;;;;;;78.80;34.60;;;0.30;99.90;;;;;;5051077;28;20028;-53
2023/01/21 06:25:16;;;;;;;76.73;35.00;;;0.30;99.90;;;;;;5049898;28;20299;-51
2023/01/21 06:27:42;;;;;;;72.23;35.47;;;0.40;99.90;;;;;;5049328;28;20390;-52
2023/01/21 06:30:09;;;;;;;81.37;35.67;;;0.40;99.90;;;;;;5047399;28;20090;-50
2023/01/21 06:32:35;;;;;;;76.65;33.85;;;0.40;99.90;;;;;;5050229;28;20052;-52
2023/01/21 06:35:01;;;;;;;75.65;33.03;;;0.40;99.90;;;;;;5049779;28;20380;-52
2023/01/21 06:37:27;;;;;;;73.40;35.00;;;0.40;99.90;;;;;;5049803;28;20452;-51
2023/01/21 06:39:52;;;;;;;72.80;34.25;;;0.40;99.90;;;;;;5050697;28;20037;-50
2023/01/21 06:42:18;;;;;;;73.70;34.37;;;0.40;99.90;;;;;;5050483;28;20033;-51
2023/01/21 06:44:44;;;;;;;75.23;33.47;;;0.40;99.90;;;;;;5049226;28;20041;-50
2023/01/21 06:47:10;;;;;;;74.35;35.60;;;0.40;99.90;;;;;;5050263;28;20445;-51
2023/01/21 06:49:35;;;;;;;76.93;34.13;;;0.40;99.90;;;;;;5049542;28;20044;-51
2023/01/21 06:52:01;;;;;;;74.47;34.23;;;0.50;99.90;;;;;;5048188;28;20282;-52
2023/01/21 06:54:27;;;;;;;73.50;34.67;;;0.50;99.90;;;;;;5046871;28;20045;-51
2023/01/21 06:56:52;;;;;;;67.63;32.60;;;0.50;99.90;;;;;;5049843;28;20047;-52
2023/01/21 06:59:18;;;;;;;73.87;34.07;;;0.50;99.90;;;;;;5049974;28;20032;-52
2023/01/21 07:01:44;;;;;;;65.70;31.23;;;0.50;99.90;;;;;;5050377;28;20111;-51
2023/01/21 07:04:09;;;;;;;76.90;33.45;;;0.50;99.90;;;;;;5048277;28;20099;-51
2023/01/21 07:06:35;;;;;;;69.57;33.27;;;0.50;99.90;;;;;;5050121;28;20388;-51
2023/01/21 07:09:02;;;;;;;68.97;33.72;;;0.50;99.90;;;;;;5048301;28;20036;-51
2023/01/21 07:11:29;;;;;;;64.75;32.78;;;0.50;99.90;;;;;;5046554;28;20041;-52
2023/01/21 07:13:54;;;;;;;78.55;35.25;;;0.50;99.90;;;;;;5048546;28;20037;-52
2023/01/21 07:16:20;;;;;;;72.90;33.73;;;0.50;99.90;;;;;;5047888;28;20536;-51
2023/01/21 07:18:45;;;;;;;68.17;33.33;;;0.50;99.90;;;;;;5049478;28;20437;-52
2023/01/21 07:21:11;;;;;;;78.77;35.10;;;0.50;99.90;;;;;;5049758;28;20267;-51
2023/01/21 07:23:36;;;;;;;73.17;33.40;;;0.50;99.90;;;;;;5048778;28;20132;-51
2023/01/21 07:26:02;;;;;;;71.10;32.17;;;0.50;99.90;;;;;;5049545;28;20399;-51
2023/01/21 07:28:28;;;;;;;69.05;32.15;;;0.50;99.90;;;;;;5048955;28;20136;-51
2023/01/21 07:30:53;;;;;;;65.73;33.57;;;0.50;99.90;;;;;;5047823;28;20067;-53
2023/01/21 07:33:19;;;;;;;68.70;33.00;;;0.50;99.90;;;;;;5048655;28;20033;-55
2023/01/21 07:35:45;;;;;;;66.30;32.67;;;0.50;99.90;;;;;;5049353;28;20431;-54
2023/01/21 07:38:10;;;;;;;79.93;35.60;;;0.50;99.90;;;;;;5049103;28;20041;-53
2023/01/21 07:40:36;;;;;;;66.97;31.03;;;0.60;99.90;;;;;;5049432;28;20033;-50
2023/01/21 07:43:01;;;;;;;64.70;31.03;;;0.50;99.90;;;;;;5044494;28;20041;-52
2023/01/21 07:45:27;;;;;;;69.37;31.50;;;0.60;99.90;;;;;;5048570;28;20037;-53
2023/01/21 07:47:52;;;;;;;72.40;32.97;;;0.60;99.90;;;;;;5045082;28;20037;-51
2023/01/21 07:50:18;;;;;;;61.03;30.97;;;0.60;99.90;;;;;;5047370;28;20048;-51
2023/01/21 07:52:44;;;;;;;61.17;29.57;;;0.50;99.90;;;;;;5046101;28;20072;-52
2023/01/21 07:55:09;;;;;;;68.33;31.93;;;0.50;99.90;;;;;;5047395;28;20051;-52
2023/01/21 07:57:35;;;;;;;63.33;30.52;;;0.50;99.90;;;;;;5048241;28;20131;-52
2023/01/21 08:00:00;;;;;;;67.93;30.73;;;0.50;99.90;;;;;;5048226;28;20048;-51
2023/01/21 08:02:26;;;;;;;62.43;29.70;;;0.60;99.90;;;;;;5049526;28;20036;-51
2023/01/21 08:04:52;;;;;;;61.30;31.40;;;0.60;99.90;;;;;;5047756;28;20065;-51
2023/01/21 08:07:17;;;;;;;64.07;31.83;;;0.60;99.90;;;;;;5048341;28;20486;-51
2023/01/21 08:09:43;;;;;;;58.83;29.47;;;0.60;99.90;;;;;;5048445;28;20033;-52
2023/01/21 08:12:09;;;;;;;65.20;32.13;;;0.60;99.90;;;;;;5048350;28;20076;-53
2023/01/21 08:14:37;;;;;;;68.47;30.35;;;0.60;99.90;;;;;;5047665;28;20542;-51
2023/01/21 08:17:03;;;;;;;62.20;29.23;;;0.60;99.90;;;;;;5044972;28;20045;-54
2023/01/21 08:19:28;;;;;;;66.97;29.27;;;0.60;99.90;;;;;;5049220;28;20025;-53
2023/01/21 08:21:54;;;;;;;58.00;29.00;;;0.60;99.90;;;;;;5048076;28;20131;-51
2023/01/21 08:24:20;;;;;;;66.30;30.73;;;0.60;99.90;;;;;;5044781;28;20036;-51
2023/01/21 08:26:45;;;;;;;61.67;32.13;;;0.60;99.90;;;;;;5047577;28;20064;-52
2023/01/21 08:29:11;;;;;;;60.90;30.00;;;0.70;99.90;;;;;;5047347;28;20056;-51
2023/01/21 08:31:36;;;;;;;62.07;31.27;;;0.60;99.90;;;;;;5048978;28;20051;-54
2023/01/21 08:34:02;;;;;;;57.13;28.80;;;0.70;99.90;;;;;;5047257;28;20116;-54
2023/01/21 08:36:28;;;;;;;60.77;29.33;;;0.70;99.90;;;;;;5047540;28;20039;-51
2023/01/21 08:38:54;;;;;;;63.07;28.50;;;0.70;99.90;;;;;;5048356;28;20091;-52
2023/01/21 08:41:20;;;;;;;60.83;29.90;;;0.70;99.90;;;;;;5047900;28;20041;-52
2023/01/21 08:43:46;;;;;;;59.92;29.15;;;0.70;99.90;;;;;;5045075;28;20037;-49
2023/01/21 08:46:12;;;;;;;60.10;30.07;;;0.70;99.90;;;;;;5048190;28;20452;-52
2023/01/21 08:48:38;;;;;;;65.53;31.63;;;0.70;99.90;;;;;;5047787;28;20418;-51
2023/01/21 08:51:04;;;;;;;67.38;31.45;;;0.70;99.90;;;;;;5048639;28;20039;-50
2023/01/21 08:53:31;;;;;;;64.82;29.55;;;0.70;99.90;;;;;;5047352;28;20041;-51
2023/01/21 08:55:57;;;;;;;;;;;0.70;99.90;;;;;;5047490;28;20102;-51
2023/01/21 08:58:22;;;;;;;65.13;28.45;;;0.70;99.90;;;;;;5047038;28;19928;-49
2023/01/21 09:00:50;;;;;;;62.07;30.20;;;0.70;99.90;;;;;;5047716;28;20037;-52
2023/01/21 09:03:16;;;;;;;56.95;28.38;;;0.80;99.90;;;;;;5047008;28;20048;-51
2023/01/21 09:05:42;;;;;;;63.85;30.17;;;0.80;99.90;;;;;;5030224;28;20044;-53
2023/01/21 09:08:07;;;;;;;56.07;28.40;;;0.80;99.90;;;;;;5047742;28;20418;-53
2023/01/21 09:13:18;;;;;;;69.32;31.42;;;0.90;99.90;;;;;;5045223;28;20053;-52
2023/01/21 09:15:44;;;;;;;61.90;28.85;;;0.90;99.90;;;;;;5046995;28;20040;-50
2023/01/21 09:18:10;;;;;;;62.42;31.35;;;0.90;99.90;;;;;;5046900;28;20039;-52
2023/01/21 09:20:36;;;;;;;57.65;28.98;;;0.90;99.90;;;;;;5046782;28;20091;-54
2023/01/21 09:23:22;;;;;;;58.17;29.55;;;0.90;99.90;;;;;;5046758;28;20037;-51
2023/01/21 09:25:47;;;;;;;59.72;27.60;;;0.90;99.90;;;;;;5047542;28;20083;-52
2023/01/21 09:28:15;;;;;;;55.03;28.57;;;1.00;99.90;;;;;;5047259;28;20481;-49
2023/01/21 09:30:40;;;;;;;61.08;28.48;;;1.00;99.90;;;;;;5048112;28;20037;-51
2023/01/21 09:33:06;;;;;;;54.67;28.33;;;1.00;99.90;;;;;;5047108;28;20040;-53
2023/01/21 09:35:31;;;;;;;52.70;25.93;;;1.00;99.90;;;;;;5046994;28;20033;-54
2023/01/21 09:37:57;;;;;;;56.00;26.97;;;1.10;99.90;;;;;;5047456;28;20421;-50
2023/01/21 09:40:23;;;;;;;56.80;27.77;;;1.10;99.90;;;;;;5051102;28;20037;-52
2023/01/21 09:42:49;;;;;;;56.88;27.88;;;1.10;99.90;;;;;;5051748;28;20064;-51
2023/01/21 09:45:16;;;;;;;54.90;27.83;;;1.10;99.90;;;;;;5050334;28;20068;-53
2023/01/21 09:47:45;;;;;;;59.88;30.48;;;1.20;99.90;;;;;;5051264;28;20037;-53
2023/01/21 09:50:20;;;;;;;55.78;26.83;;;1.20;99.90;;;;;;5050978;28;20107;-54
2023/01/21 09:52:50;;;;;;;53.33;26.80;;;1.20;99.90;;;;;;5051061;28;20501;-54
2023/01/21 09:55:27;;;;;;;62.13;27.13;;;1.20;99.90;;;;;;5049261;28;20446;-54
2023/01/21 09:58:20;;;;;;;55.65;26.98;;;1.20;99.90;;;;;;5050077;28;20486;-53
2023/01/21 10:00:55;;;;;;;57.00;26.98;;;1.30;99.90;;;;;;5050862;28;20040;-51
2023/01/21 10:03:30;;;;;;;54.92;29.38;;;1.30;99.90;;;;;;5050218;28;20063;-54
2023/01/21 10:06:13;;;;;;;50.63;27.35;;;1.30;99.90;;;;;;5050853;28;20065;-53
2023/01/21 10:08:54;;;;;;;57.50;27.13;;;1.30;99.90;;;;;;5062722;28;20052;-55
2023/01/21 10:11:21;;;;;;;47.35;24.80;;;1.40;99.90;;;;;;5051088;28;20036;-54
2023/01/21 10:14:10;;;;;;;51.10;27.58;;;1.40;99.90;;;;;;5049621;28;20052;-54
2023/01/21 10:16:58;;;;;;;47.40;25.33;;;1.40;99.90;;;;;;5049282;28;20040;-53
2023/01/21 10:19:48;;;;;;;51.17;27.77;;;1.40;99.90;;;;;;5050870;28;20041;-55
2023/01/21 10:22:19;;;;;;;53.45;27.92;;;1.50;99.90;;;;;;5049882;28;20044;-56
2023/01/21 10:25:05;;;;;;;50.63;26.77;;;1.50;99.90;;;;;;5050185;28;20083;-54
2023/01/21 10:27:36;;;;;;;49.78;27.25;;;1.60;99.90;;;;;;5049869;28;20033;-55
2023/01/21 10:30:19;;;;;;;49.60;26.98;;;1.60;99.90;;;;;;5049677;28;20101;-55
2023/01/21 10:32:49;;;;;;;53.78;26.63;;;1.60;99.90;;;;;;5050539;28;20041;-54
2023/01/21 10:35:23;;;;;;;51.25;26.15;;;1.70;99.90;;;;;;5044569;28;20086;-53
2023/01/21 10:38:18;;;;;;;45.72;25.33;;;1.80;99.90;;;;;;5048235;28;20493;-55
2023/01/21 10:41:17;;;;;;;47.05;25.70;;;1.80;99.90;;;;;;5051071;28;20040;-53
2023/01/21 10:44:00;;;;;;;54.95;25.95;;;1.80;99.90;;;;;;5050893;28;20094;-54
2023/01/21 10:46:56;;;;;;;50.08;25.23;;;2.00;99.90;;;;;;5052963;28;20109;-55
2023/01/21 10:49:43;;;;;;;51.00;27.02;;;2.40;99.90;;;;;;5053947;28;20048;-54
2023/01/21 10:52:38;;;;;;;36.43;23.17;;;3.00;99.90;;;;;;5050985;28;20040;-54
2023/01/21 10:55:04;;;;;;;42.80;23.23;;;3.50;99.90;;;;;;5048000;28;20653;-56
2023/01/21 10:58:10;;;;;;;38.13;22.37;;;4.10;99.90;;;;;;5052869;28;20040;-56
2023/01/21 11:00:43;;;;;;;42.55;23.05;;;4.40;99.90;;;;;;5051884;28;20047;-51
2023/01/21 11:03:41;;;;;;;40.28;22.58;;;4.60;99.90;;;;;;5050515;28;20041;-50
2023/01/21 11:06:11;;;;;;;37.15;21.02;;;4.70;99.90;;;;;;5023833;28;20525;-56
2023/01/21 11:08:37;;;;;;;39.83;23.92;;;4.70;99.90;;;;;;5066968;28;20055;-56
2023/01/21 11:11:05;;;;;;;37.42;21.98;;;4.70;99.90;;;;;;5051108;28;20048;-57
2023/01/21 11:13:31;;;;;;;58.83;23.90;;;4.70;99.90;;;;;;5049357;28;20043;-58
2023/01/21 11:15:57;;;;;;;41.45;22.05;;;4.90;99.90;;;;;;5051274;28;20045;-57
2023/01/21 11:18:25;;;;;;;36.20;22.98;;;5.10;99.90;;;;;;5052527;28;20076;-57
2023/01/21 11:20:54;;;;;;;36.20;21.05;;;5.50;99.90;;;;;;5053370;28;20037;-57
2023/01/21 11:23:33;;;;;;;32.88;19.50;;;5.80;99.90;;;;;;5048312;28;20445;-58
2023/01/21 11:26:01;;;;;;;35.40;22.00;;;5.90;99.90;;;;;;5048384;28;20486;-57
2023/01/21 11:28:31;;;;;;;35.65;23.95;;;5.90;99.90;;;;;;5049900;28;20044;-56
2023/01/21 11:31:23;;;;;;;36.38;23.25;;;5.90;99.90;;;;;;5052408;28;20115;-56
2023/01/21 11:33:49;;;;;;;36.47;23.00;;;5.80;99.90;;;;;;5049338;28;20098;-57
2023/01/21 11:36:19;;;;;;;36.80;22.95;;;5.80;99.90;;;;;;5052656;28;20418;-57
2023/01/21 11:39:03;;;;;;;38.03;23.60;;;5.80;99.90;;;;;;5050726;28;20104;-57
2023/01/21 11:41:29;;;;;;;37.45;22.30;;;5.80;99.90;;;;;;5050818;28;20045;-57
2023/01/21 11:44:09;;;;;;;39.97;22.63;;;6.10;99.90;;;;;;5052254;28;20541;-54
2023/01/21 11:46:37;;;;;;;38.05;22.88;;;6.20;99.90;;;;;;5052124;28;20095;-56
2023/01/21 11:49:06;;;;;;;33.95;21.08;;;6.30;99.90;;;;;;5050647;28;20453;-57
2023/01/21 11:51:35;;;;;;;37.38;23.60;;;6.40;99.90;;;;;;5048598;28;20491;-57
2023/01/21 11:54:06;;;;;;;34.58;22.55;;;6.70;99.90;;;;;;5050375;28;20046;-56
2023/01/21 11:56:33;;;;;;;34.83;21.83;;;7.50;99.90;;;;;;5049689;28;20094;-57
2023/01/21 11:58:58;;;;;;;32.40;21.05;;;7.90;99.90;;;;;;5067651;28;20110;-56
2023/01/21 12:01:24;;;;;;;44.05;23.80;;;8.00;99.90;;;;;;5051674;28;20478;-57
2023/01/21 12:03:59;;;;;;;36.97;23.17;;;7.90;99.90;;;;;;5049159;28;20421;-58
2023/01/21 12:06:29;;;;;;;35.45;22.67;;;7.70;99.90;;;;;;5051855;28;20032;-57
2023/01/21 12:09:00;;;;;;;35.15;23.10;;;7.50;99.90;;;;;;5049938;28;20045;-58
2023/01/21 12:11:28;;;;;;;37.50;24.23;;;7.50;99.90;;;;;;5053021;28;20048;-57
2023/01/21 12:14:16;;;;;;;35.72;22.30;;;7.40;99.90;;;;;;5047001;28;20498;-57
2023/01/21 12:16:52;;;;;;;33.28;21.95;;;7.60;99.90;;;;;;5052208;28;20083;-58
2023/01/21 12:20:13;;;;;;;31.58;21.92;;;8.20;99.90;;;;;;5046238;28;20037;-56
2023/01/21 12:23:00;;;;;;;34.42;22.70;;;8.80;99.90;;;;;;5020755;28;20056;-57
2023/01/21 12:25:44;;;;;;;33.33;20.65;;;8.80;99.90;;;;;;5049799;28;20068;-58
2023/01/21 12:28:32;;;;;;;33.92;21.48;;;8.60;99.90;;;;;;5048304;28;20099;-57
2023/01/21 12:31:22;;;;;;;35.13;21.63;;;8.50;99.90;;;;;;5047033;28;20075;-57
2023/01/21 12:33:56;;;;;;;32.25;20.92;;;8.30;99.90;;;;;;5046188;28;20037;-58
2023/01/21 12:36:31;;;;;;;29.45;19.90;;;8.00;99.90;;;;;;5049686;28;20049;-56
2023/01/21 12:39:25;;;;;;;30.83;19.85;;;7.70;99.90;;;;;;5048341;28;20037;-58
2023/01/21 12:42:33;;;;;;;28.35;19.98;;;7.40;99.90;;;;;;5047882;28;20034;-57
2023/01/21 12:45:25;;;;;;;26.27;19.70;;;7.10;99.90;;;;;;5011938;28;20056;-56
2023/01/21 12:47:50;;;;;;;29.23;19.40;;;6.80;99.90;;;;;;5032136;28;20048;-56
2023/01/21 12:50:26;;;;;;;24.47;17.60;;;6.60;99.90;;;;;;5049705;28;20534;-57
2023/01/21 12:53:08;;;;;;;32.38;21.08;;;6.40;99.90;;;;;;5048382;28;20391;-58
2023/01/21 12:55:58;;;;;;;37.60;19.75;;;6.20;99.90;;;;;;5046817;28;20410;-57
2023/01/21 12:58:31;;;;;;;31.23;20.98;;;6.10;99.90;;;;;;5049524;28;20040;-57
2023/01/21 13:01:01;;;;;;;29.20;19.40;;;5.90;99.90;;;;;;5050431;28;20521;-57
2023/01/21 13:03:48;;;;;;;28.35;18.63;;;5.80;99.90;;;;;;5049948;28;20033;-56